Logo AVAMET
Benvolgut visitant, si us plau, ingressa Recuperar contrasenya
AVAMET paisatges

Inforatge Pedreguer Centre

Dades diàries. Acumulats / Últims 30 dies disponibles

Data Temperatura (°C) Humitat rel. (%) Pressió rel. (hPa) Vent (km/h) Precipitació
Mínima Mitjana Màxima Amplitud
tèrmica
Mínima Mitjana Màxima Mínima Mitjana Màxima Predom. Mitjana Ràfega
màxima
Total
(mm)
Índex-n
Mínima Mitjana Màxima Mínima Mitjana Màxima n
0 a 1
P0 max
mm 5'
Dades mensuals acumulades fins l'últim dia disponible
03/2020 7,4 11,6 17,3 14,7 10,8 18,1 26,1 18,7 28 71 96 1.003 1.019 1.029   8,7 91,7 56,6
Dades anuals acumulades fins l'últim dia disponible
2020 4,3 10,4 17,3 14,0 10,8 18,1 27,1 22,8 18 72 98 1.003 1.024 1.036   5,7 91,7 173,4
Últims 30 dies disponibles
28-03-2020 9,1     11,7     15,3 6,2 52 71 86 1.018 1.019 1.021 WSW 6,3 24,1 0,0
27-03-2020 8,1     9,6     10,8 2,7 77 87 92 1.013 1.015 1.018 WSW 4,7 29,0 5,2
26-03-2020 7,4     10,9     15,3 7,9 45 75 90 1.009 1.011 1.015 NNE 5,0 25,7 0,0
25-03-2020 8,7     10,3     12,4 3,7 68 82 92 1.016 1.018 1.019 W 5,1 29,0 7,0 0,34 0,40
24-03-2020 12,3     13,4     14,4 2,1 71 85 90 1.016 1.017 1.019 ENE 13,8 45,1 5,6
23-03-2020 11,2     13,7     16,9 5,7 78 89 95 1.015 1.017 1.018 ENE 3,7 27,4 13,0 0,49 3,20
22-03-2020 10,7     12,4     14,0 3,3 84 91 94 1.012 1.014 1.016 W 4,2 20,9 4,2 0,02 0,40
21-03-2020 11,4     12,7     13,3 1,9 89 93 95 1.013 1.015 1.018 NW 3,4 17,7 6,2 0,20
20-03-2020 12,0     13,5     14,7 2,7 79 86 93 1.018 1.020 1.022 ENE 4,7 27,4 0,2
19-03-2020 12,8     14,1     16,1 3,3 78 88 94 1.022 1.024 1.027 NE 5,1 22,5 0,0
18-03-2020 12,9     13,6     14,4 1,5 85 91 96 1.026 1.028 1.029 NNE 7,9 27,4 0,0
17-03-2020 9,7     12,0     14,2 4,5 89 94 96 1.021 1.025 1.029 W 5,3 22,5 9,2 0,30 0,40
16-03-2020 9,5     12,7     17,2 7,7 76 87 94 1.012 1.015 1.021 SE 3,4 25,7 5,2
15-03-2020 10,7     14,6     18,8 8,1 57 80 92 1.015 1.019 1.022 SE 6,3 43,5 0,0
14-03-2020 11,1     15,1     20,0 8,9 68 82 90 1.020 1.021 1.023 SE 6,4 29,0 0,0
13-03-2020 12,2     14,3     17,1 4,9 73 87 93 1.019 1.021 1.022 NW 8,5 29,0 0,0
12-03-2020 12,2     17,1     22,8 10,6 43 70 89 1.018 1.021 1.024 NW 2,7 14,5 0,0
11-03-2020 12,2     18,7     26,1 13,9 35 60 89 1.022 1.024 1.025 ENE 3,4 27,4 0,0
10-03-2020 11,3     15,6     20,1 8,8 52 63 77 1.024 1.026 1.028 ENE 6,1 35,4 0,0
09-03-2020 13,2     17,1     22,1 8,9 33 50 84 1.021 1.023 1.025 W 7,1 33,8 0,0
08-03-2020 10,4     16,0     21,4 11,0 36 53 83 1.022 1.024 1.026 ENE 4,0 27,4 0,0
07-03-2020 11,3     14,1     18,0 6,7 33 44 59 1.021 1.023 1.026 WNW 18,5 66,0 0,0
06-03-2020 12,3     14,8     17,3 5,0 29 47 67 1.014 1.016 1.021 WNW 18,0 67,6 0,0
05-03-2020 15,7     19,6     24,4 8,7 40 49 59 1.009 1.013 1.018 W 17,9 53,1 0,0
04-03-2020 17,3     19,8     23,2 5,9 45 56 67 1.017 1.019 1.021 W 14,8 51,5 0,0
03-03-2020 11,1     16,4     21,9 10,8 39 47 56 1.012 1.017 1.019 W 17,9 69,2 0,0
02-03-2020 11,8     18,7     23,2 11,4 28 44 71 1.003 1.009 1.018 W 23,7 91,7 0,8
01-03-2020 16,3     18,9     22,1 5,8 42 50 58 1.013 1.015 1.017 W 14,6 53,1 0,0
29-02-2020 10,8     17,7     24,7 13,9 30 52 77 1.012 1.015 1.019 SSO 3,2 33,8 0,0
28-02-2020 13,4     18,5     22,1 8,7 35 43 62 1.020 1.022 1.024 SE 7,7 35,4 0,0
Últims 13 mesos disponibles
02/2020 7,2 11,1 15,9 15,4 14,2 20,5 27,1 19,9 35 69 89 1.015 1.027 1.034 ESE 4,1 43,5 6,0
01/2020 4,3 8,7 15,3 12,0 12,3 15,8 22,1 17,8 52 76 95 1.016 1.026 1.033 WSW 4,6 83,7 110,8
12/2019 7,5 11,4 17,7 14,4 13,2 17,9 24,4 16,9 49 71 92 1.005 1.020 1.034 W 6,3 78,9 160,0
11/2019 7,9 12,9 21,8 15,9 14,3 19,5 26,9 19,0 44 57 79 1.000 1.013 1.020 W 10,5 70,8 4,4
10/2019 10,7 16,8 20,6 20,7 16,4 24,7 31,8 21,1 46 70 87 1.010 1.018 1.023 SE 4,6 56,3 79,0
09/2019 14,0 20,2 23,3 23,7 22,9 27,4 34,3 20,3 54 77 95 1.012 1.019 1.025 SSE 5,7 83,7 177,6
08/2019 19,2 22,8 26,5 26,9 26,4 31,4 38,0 18,8 51 71 83 1.012 1.017 1.022 SSE 6,7 46,7 69,8
07/2019 21,5 23,1 27,9 27,2 27,9 32,1 39,6 18,1 45 65 80 1.008 1.016 1.023 SSE 6,9 66,7 1,2
06/2019 15,1 18,4 22,3 22,9 21,7 27,4 36,2 21,1 40 64 84 1.010 1.017 1.023 SSE 7,9 50,0 0,8
05/2019 10,1 15,0 21,3 19,0 19,4 23,5 30,2 20,1 50 67 83 1.006 1.017 1.026 SSE 6,8 68,5 8,6
04/2019 9,8 12,1 13,9 15,5 14,0 19,5 27,9 18,1 40 69 93 1.001 1.014 1.026 S 8,2 66,7 264,0
03/2019 7,9 10,7 16,1 14,9 11,2 19,2 27,4 19,5 37 60 91 1.012 1.024 1.031 SSE 5,9 56,3 77,8
02/2019 6,3 8,9 12,1 12,8 12,2 17,1 22,6 16,3 36 63 84 997 1.026 1.035 S 6,0 74,1 0,0
Tots els anys disponibles
2019 4,7 15,1 27,9 18,8 10,8 23,0 39,6 34,9 36 66 95 997 1.018 1.035 SSE 6,8 83,7 847,8
2018 3,8 15,3 27,4 18,9 7,7 23,0 37,2 33,4 37 68 93 999 1.018 1.032 SSE 6,6 82,0 590,6
2017 4,7 12,6 19,2 16,2 11,6 20,3 28,9 24,2 60 60 60 1.015 1.015 1.015 5,3 72,2 56,0
Temperatura (°C)
Humitat relativa (%)
Velocitat del vent i ràfega màxima (km/h)
Direcció del vent (°)
Pressió (hPa)
Precipitació (mm)
Nota sobre les dades: s'avisa a l'usuari de la provisionalitat i no oficialitat d'aquestes dades
Logo AVAMET blanc
Web allotjada a Sollutia
Llicència de Creative CommonsLa web d'AVAMET i els seus continguts estan subjectes a una llicència de
Reconeixement - No Comercial - Compartir igual
Últimes estacions:  Altea - Com. Regants (Soci), Almoines (Inforatge), Beniparrell (Inforatge), Albal (Inforatge), Almussafes - Parc Industrial (Inforatge), La Vilavella (Soci), la Serratella (soci) - - -